Time;durP1;ratioP1;P1;durP2;ratioP2;P2;SDS_P1;SDS_P2;PMS_P1;PMS_P2;Temp;Humidity;BMP_temperature;BMP_pressure;BME280_temperature;BME280_humidity;BME280_pressure;Samples;Min_cycle;Max_cycle;Signal;HPM_P1;HPM_P2
2021/07/06 00:08:27;;;;;;;8.3;5.6;;;;;;;17.66;100;98288.27;;;;
2021/07/06 00:18:27;;;;;;;7.5;4.7;;;;;;;17.57;100;98288.48;;;;
2021/07/06 00:28:26;;;;;;;7.5;4.5;;;;;;;17.41;100;98296.73;;;;
2021/07/06 00:38:26;;;;;;;5.9;4.4;;;;;;;17.43;100;98301.8;;;;
2021/07/06 00:48:25;;;;;;;10.1;6.2;;;;;;;17.36;100;98309.83;;;;
2021/07/06 00:58:24;;;;;;;11.2;5.5;;;;;;;17.31;100;98321.82;;;;
2021/07/06 01:08:24;;;;;;;10.1;6;;;;;;;17.25;100;98323.23;;;;
2021/07/06 01:18:23;;;;;;;9.8;7.2;;;;;;;17.09;100;98328.74;;;;
2021/07/06 01:28:23;;;;;;;7.8;5.8;;;;;;;17.15;100;98329.24;;;;
2021/07/06 01:38:22;;;;;;;6.3;4.8;;;;;;;17.02;100;98331.31;;;;
2021/07/06 01:48:21;;;;;;;7.4;5.2;;;;;;;16.8;100;98342.85;;;;
2021/07/06 01:58:21;;;;;;;10.3;7;;;;;;;16.65;100;98353.77;;;;
2021/07/06 02:08:20;;;;;;;11.7;7.8;;;;;;;16.53;100;98343.73;;;;
2021/07/06 02:18:20;;;;;;;13.9;9.6;;;;;;;16.4;100;98334.09;;;;
2021/07/06 02:28:19;;;;;;;11.1;7.8;;;;;;;16.31;100;98338.94;;;;
2021/07/06 02:38:19;;;;;;;22.8;7.6;;;;;;;16.16;100;98342.42;;;;
2021/07/06 02:48:18;;;;;;;8.8;5.9;;;;;;;16.22;100;98349.17;;;;
2021/07/06 02:58:17;;;;;;;8.6;5.9;;;;;;;16.36;100;98363.13;;;;
2021/07/06 03:08:17;;;;;;;11.3;7.3;;;;;;;16.52;100;98356.55;;;;
2021/07/06 03:18:16;;;;;;;11.5;6.9;;;;;;;16.71;100;98353.15;;;;
2021/07/06 03:28:15;;;;;;;14.3;6.9;;;;;;;16.69;100;98355.45;;;;
2021/07/06 03:38:15;;;;;;;8.8;6;;;;;;;16.8;100;98361.14;;;;
2021/07/06 03:48:14;;;;;;;8;5.8;;;;;;;17.03;100;98371.02;;;;
2021/07/06 03:58:14;;;;;;;11.2;7.2;;;;;;;17.36;100;98377.94;;;;
2021/07/06 04:08:13;;;;;;;7.7;5.7;;;;;;;17.55;100;98365.14;;;;
2021/07/06 04:18:13;;;;;;;10.6;6.7;;;;;;;17.75;100;98370.6;;;;
2021/07/06 04:28:12;;;;;;;11.4;7.6;;;;;;;18.23;100;98369.95;;;;
2021/07/06 04:38:12;;;;;;;12.2;8.5;;;;;;;18.52;100;98379.46;;;;
2021/07/06 04:48:11;;;;;;;10.8;7.9;;;;;;;18.95;100;98387.16;;;;
2021/07/06 04:58:11;;;;;;;17.3;10.9;;;;;;;19.46;100;98382.09;;;;
2021/07/06 05:08:11;;;;;;;9.2;5.9;;;;;;;19.91;100;98389.28;;;;
2021/07/06 05:18:10;;;;;;;9;7.2;;;;;;;20.36;100;98401.11;;;;
2021/07/06 05:28:10;;;;;;;7.2;5.6;;;;;;;20.76;100;98408.5;;;;
2021/07/06 05:38:10;;;;;;;9.9;4.3;;;;;;;21.04;100;98409.52;;;;
2021/07/06 05:48:10;;;;;;;8.5;5.6;;;;;;;21.3;100;98408.56;;;;
2021/07/06 05:58:10;;;;;;;9.7;7.1;;;;;;;21.51;100;98411.43;;;;
2021/07/06 06:08:11;;;;;;;13.7;8.3;;;;;;;21.64;100;98416.57;;;;
2021/07/06 06:18:11;;;;;;;9.9;7.8;;;;;;;22.07;100;98430.1;;;;
2021/07/06 06:28:11;;;;;;;10.7;7.6;;;;;;;22.47;100;98441.98;;;;
2021/07/06 06:38:11;;;;;;;9.2;5.6;;;;;;;22.72;100;98453.84;;;;
2021/07/06 06:48:11;;;;;;;6.6;4.7;;;;;;;22.78;100;98452.27;;;;
2021/07/06 06:58:12;;;;;;;9.3;5.7;;;;;;;23.24;100;98446.77;;;;
2021/07/06 07:08:12;;;;;;;8.3;5.1;;;;;;;23.47;100;98446.36;;;;
2021/07/06 07:18:13;;;;;;;6.6;4;;;;;;;23.66;100;98450.66;;;;
2021/07/06 07:28:13;;;;;;;6.4;4.6;;;;;;;24.08;100;98452.48;;;;
2021/07/06 07:38:13;;;;;;;6.3;3.6;;;;;;;24.33;100;98436.65;;;;
2021/07/06 07:48:14;;;;;;;6.2;3;;;;;;;24.5;99.4541;98442.03;;;;
2021/07/06 07:58:14;;;;;;;5.5;3.6;;;;;;;24.74;98.59082;98445.05;;;;
2021/07/06 08:08:15;;;;;;;8.7;4.8;;;;;;;24.76;98.00586;98435.17;;;;
2021/07/06 08:18:16;;;;;;;6.3;3.5;;;;;;;24.93;96.3877;98434.28;;;;
2021/07/06 08:28:18;;;;;;;5.3;3.6;;;;;;;24.82;97.09277;98447.33;;;;
2021/07/06 08:38:17;;;;;;;5.9;3.6;;;;;;;25.36;98.07715;98428.39;;;;
2021/07/06 08:48:17;;;;;;;6.2;3.6;;;;;;;25.57;95.77832;98432.94;;;;
2021/07/06 08:58:18;;;;;;;5.3;3.4;;;;;;;25.53;95.17871;98441.25;;;;
2021/07/06 09:08:19;;;;;;;7.9;3.8;;;;;;;25.9;97.04395;98443.19;;;;
2021/07/06 09:18:20;;;;;;;4.9;2.8;;;;;;;26.24;91.67383;98432.16;;;;
2021/07/06 09:28:20;;;;;;;5;3.6;;;;;;;26.56;94.23047;98426.16;;;;
2021/07/06 09:38:21;;;;;;;6.2;4.4;;;;;;;26.77;94.13477;98429.39;;;;
2021/07/06 09:48:22;;;;;;;5.8;3.5;;;;;;;26.73;84.07324;98425.89;;;;
2021/07/06 09:58:22;;;;;;;5.3;3.1;;;;;;;26.62;83.48145;98421.75;;;;
2021/07/06 10:08:23;;;;;;;5.5;3.2;;;;;;;27.12;86.91602;98430.04;;;;
2021/07/06 10:18:24;;;;;;;7.1;4.4;;;;;;;27.13;81.24609;98409.48;;;;
2021/07/06 10:28:25;;;;;;;6;4;;;;;;;27.57;81.17383;98400.77;;;;
2021/07/06 10:38:26;;;;;;;7.7;4.9;;;;;;;27.81;85.16309;98405.04;;;;
2021/07/06 10:48:27;;;;;;;6.9;4.6;;;;;;;28.05;85.75684;98391.09;;;;
2021/07/06 10:58:28;;;;;;;6.8;4.2;;;;;;;28.2;81.97949;98389.61;;;;
2021/07/06 11:08:42;;;;;;;7.2;4.3;;;;;;;27.87;80.63184;98375.63;;;;
2021/07/06 11:18:35;;;;;;;7;4.6;;;;;;;28.56;80.46094;98370.96;;;;
2021/07/06 11:28:31;;;;;;;6;4.4;;;;;;;28.76;81.45801;98368.91;;;;
2021/07/06 11:38:40;;;;;;;5.9;3.8;;;;;;;28.75;78.08398;98358.23;;;;
2021/07/06 11:48:34;;;;;;;5.6;3.6;;;;;;;28.94;75.12988;98352.59;;;;
2021/07/06 11:58:35;;;;;;;7;4.1;;;;;;;28.76;76.77051;98338.39;;;;
2021/07/06 12:08:35;;;;;;;14.3;4.4;;;;;;;29.11;72.83594;98327.58;;;;
2021/07/06 12:18:36;;;;;;;7.8;4.6;;;;;;;28.94;72.28027;98319.3;;;;
2021/07/06 12:28:37;;;;;;;6.4;4.8;;;;;;;29.18;76.13281;98313.52;;;;
2021/07/06 12:38:39;;;;;;;6.1;4.4;;;;;;;29.63;71.50488;98308.69;;;;
2021/07/06 12:48:40;;;;;;;7.4;5.7;;;;;;;29.33;72.0127;98304.37;;;;
2021/07/06 12:58:41;;;;;;;6.7;4;;;;;;;29.77;75.83203;98304.7;;;;
2021/07/06 13:08:45;;;;;;;5.5;3.5;;;;;;;29.93;75.06934;98304.63;;;;
2021/07/06 13:18:46;;;;;;;6.9;3.9;;;;;;;30.21;74.74805;98300.19;;;;
2021/07/06 13:28:46;;;;;;;6;4.7;;;;;;;30.11;67.97461;98287.41;;;;
2021/07/06 13:38:46;;;;;;;6.2;4.3;;;;;;;30.09;72.17871;98279.53;;;;
2021/07/06 13:48:47;;;;;;;7.2;4.2;;;;;;;31.03;73.30859;98270.48;;;;
2021/07/06 13:58:49;;;;;;;7.9;4.4;;;;;;;30.48;69.50977;98267.14;;;;
2021/07/06 14:08:51;;;;;;;6.9;4.7;;;;;;;30.31;69.15234;98251.8;;;;
2021/07/06 14:18:51;;;;;;;7.5;3.8;;;;;;;30.93;67.4707;98248.08;;;;
2021/07/06 14:28:53;;;;;;;7.2;5.2;;;;;;;30.52;72.12793;98236.43;;;;
2021/07/06 14:38:54;;;;;;;6.9;4.1;;;;;;;30.49;68.12695;98238.11;;;;
2021/07/06 14:48:56;;;;;;;7.8;4.6;;;;;;;30.69;70.39355;98229.47;;;;
2021/07/06 14:58:56;;;;;;;6.3;4.1;;;;;;;31.09;71.85156;98226.9;;;;
2021/07/06 15:08:58;;;;;;;8;4.7;;;;;;;32.31;64.51074;98236.51;;;;
2021/07/06 15:18:59;;;;;;;8.4;4.7;;;;;;;33.64;59.99414;98228.28;;;;
2021/07/06 15:29:02;;;;;;;9.2;5;;;;;;;34.66;55.50488;98228.88;;;;
2021/07/06 15:39:03;;;;;;;7.5;4.3;;;;;;;35.04;53.06543;98221.72;;;;
2021/07/06 15:49:06;;;;;;;5.4;4;;;;;;;35.23;53.70117;98226.68;;;;
2021/07/06 15:59:08;;;;;;;6.3;4.8;;;;;;;35.74;51.67969;98215.11;;;;
2021/07/06 16:09:10;;;;;;;7.6;4.1;;;;;;;36.05;53.27832;98222.97;;;;
2021/07/06 16:19:13;;;;;;;12.2;4.1;;;;;;;36.82;50.19629;98216.88;;;;
2021/07/06 16:29:15;;;;;;;7.8;4.9;;;;;;;36.38;50.61816;98213.5;;;;
2021/07/06 16:39:18;;;;;;;7.7;4.7;;;;;;;36.36;50.1709;98210.4;;;;
2021/07/06 16:49:20;;;;;;;7.1;4.5;;;;;;;36.93;48.69922;98227.47;;;;
2021/07/06 17:59:37;;;;;;;6.8;4.9;;;;;;;32.27;59.79199;98235.88;;;;
2021/07/06 18:09:37;;;;;;;8.6;7.5;;;;;;;30.85;63.71387;98241.23;;;;
2021/07/06 18:19:38;;;;;;;16.7;10.5;;;;;;;28.73;70.65625;98242.18;;;;
2021/07/06 18:29:39;;;;;;;9.6;7.2;;;;;;;27.57;76.22852;98256.02;;;;
2021/07/06 18:39:40;;;;;;;8.7;6.2;;;;;;;26.66;81.04785;98268.41;;;;
2021/07/06 18:49:41;;;;;;;41.2;37;;;;;;;25.73;87.8252;98260;;;;
2021/07/06 18:59:42;;;;;;;12.9;9.6;;;;;;;25.2;90.29297;98260.66;;;;
2021/07/06 19:09:42;;;;;;;8.9;7.2;;;;;;;24.68;94.13184;98271.03;;;;
2021/07/06 19:19:43;;;;;;;9.4;6.8;;;;;;;24.33;96.76758;98276.89;;;;
2021/07/06 19:39:45;;;;;;;27.1;24.2;;;;;;;23.85;100;98285.04;;;;
2021/07/06 19:49:45;;;;;;;7.2;5.1;;;;;;;23.6;100;98293.45;;;;
2021/07/06 19:59:45;;;;;;;11.2;8.6;;;;;;;23.26;100;98301.41;;;;
2021/07/06 20:09:45;;;;;;;8.3;7.3;;;;;;;23;100;98301.89;;;;
2021/07/06 20:19:46;;;;;;;11.1;7.1;;;;;;;22.66;100;98308.98;;;;
2021/07/06 20:29:46;;;;;;;9.5;6.9;;;;;;;22.39;100;98314.06;;;;
2021/07/06 20:39:45;;;;;;;10.1;6.3;;;;;;;21.93;100;98325.8;;;;
2021/07/06 20:49:45;;;;;;;10.7;7.7;;;;;;;21.76;100;98323.77;;;;
2021/07/06 20:59:45;;;;;;;11.5;7.9;;;;;;;21.41;100;98316.2;;;;
2021/07/06 21:09:45;;;;;;;11.5;8.9;;;;;;;21.22;100;98318.43;;;;
2021/07/06 21:19:45;;;;;;;11.5;9;;;;;;;21.16;100;98328.19;;;;
2021/07/06 21:29:45;;;;;;;11.2;8.6;;;;;;;21.11;100;98323.06;;;;
2021/07/06 21:39:45;;;;;;;11.1;9.9;;;;;;;20.89;100;98331.15;;;;
2021/07/06 21:49:45;;;;;;;11.2;7.9;;;;;;;20.58;100;98334.44;;;;
2021/07/06 21:59:45;;;;;;;10.5;9.4;;;;;;;20.41;100;98337.83;;;;
2021/07/06 22:09:45;;;;;;;13.8;8.9;;;;;;;20.19;100;98328.59;;;;
2021/07/06 22:19:45;;;;;;;9.6;7.5;;;;;;;19.95;100;98329.93;;;;
2021/07/06 22:29:43;;;;;;;13.8;9.1;;;;;;;19.72;100;98332;;;;
2021/07/06 22:39:43;;;;;;;14;8.4;;;;;;;19.44;100;98342.59;;;;
2021/07/06 22:49:43;;;;;;;12.3;8.2;;;;;;;19.41;100;98343.34;;;;
2021/07/06 22:59:43;;;;;;;13.2;9;;;;;;;19.19;100;98349.67;;;;
2021/07/06 23:09:42;;;;;;;12.4;7.8;;;;;;;19.07;100;98345.2;;;;
2021/07/06 23:19:42;;;;;;;13.2;10.2;;;;;;;18.88;100;98340.63;;;;
2021/07/06 23:29:41;;;;;;;13;10.9;;;;;;;18.82;100;98347.56;;;;
2021/07/06 23:39:42;;;;;;;12.5;11.2;;;;;;;18.62;100;98350.76;;;;
2021/07/06 23:49:41;;;;;;;11.1;9.9;;;;;;;18.45;100;98346.56;;;;
2021/07/06 23:59:40;;;;;;;13.7;10.2;;;;;;;18.28;100;98345.12;;;;
